Time;durP1;ratioP1;P1;durP2;ratioP2;P2;SDS_P1;SDS_P2;PMS_P1;PMS_P2;Temp;Humidity;BMP_temperature;BMP_pressure;BME280_temperature;BME280_humidity;BME280_pressure;Samples;Min_cycle;Max_cycle;Signal;HPM_P1;HPM_P2
2022/09/08 19:02:27;;;;;;;;;;;21.90;99.90;;;;;;5119017;27;19926;-81
2022/09/08 19:05:01;;;;;;;;;;;22.10;99.90;;;;;;5114619;28;19927;-79
2022/09/08 19:07:34;;;;;;;;;;;22.60;99.90;;;;;;5114262;28;19931;-81
2022/09/08 19:10:08;;;;;;;;;;;23.00;99.90;;;;;;5114709;28;19923;-80
2022/09/08 19:12:46;;;;;;;;;;;23.20;99.90;;;;;;5114464;28;20379;-83
2022/09/08 19:15:14;;;;;;;;;;;23.40;99.90;;;;;;5114604;28;20341;-82
2022/09/08 19:17:58;;;;;;;;;;;23.60;99.90;;;;;;5114318;28;19924;-82
2022/09/08 19:20:27;;;;;;;;;;;23.70;99.90;;;;;;5114771;28;19967;-82
2022/09/08 19:22:59;;;;;;;;;;;23.80;99.90;;;;;;5114428;28;19931;-82
2022/09/08 19:25:26;;;;;;;;;;;23.80;99.90;;;;;;5114370;28;19974;-82
2022/09/08 19:28:01;;;;;;;;;;;23.90;99.90;;;;;;5114378;28;19932;-82
2022/09/08 19:30:30;;;;;;;;;;;24.00;99.90;;;;;;5114186;28;20401;-82
2022/09/08 19:33:00;;;;;;;;;;;24.00;99.90;;;;;;5114230;28;19924;-82
2022/09/08 19:35:29;;;;;;;;;;;24.10;99.90;;;;;;5114396;28;19931;-82
2022/09/08 19:37:59;;;;;;;;;;;24.10;99.90;;;;;;5114373;28;20294;-82
2022/09/08 19:40:35;;;;;;;;;;;24.10;99.90;;;;;;5113427;28;19924;-82
2022/09/08 19:43:04;;;;;;;;;;;24.20;99.90;;;;;;5114340;28;19924;-82
2022/09/08 19:45:34;;;;;;;;;;;24.10;99.90;;;;;;5113683;28;19963;-82
2022/09/08 19:48:15;;;;;;;;;;;24.20;99.90;;;;;;5114274;28;20365;-82
2022/09/08 19:50:52;;;;;;;;;;;24.20;99.90;;;;;;5113660;28;20027;-82
2022/09/08 19:53:25;;;;;;;;;;;24.20;99.90;;;;;;5114299;28;19971;-82
2022/09/08 19:56:01;;;;;;;;;;;24.20;99.90;;;;;;5113654;28;19924;-82
2022/09/08 19:58:36;;;;;;;;;;;24.20;99.90;;;;;;5113304;28;20446;-83
2022/09/08 20:01:20;;;;;;;;;;;24.20;99.90;;;;;;5123357;28;19971;-82
2022/09/08 20:03:50;;;;;;;;;;;24.20;99.90;;;;;;5133760;28;19924;-82
2022/09/08 20:06:21;;;;;;;;;;;24.30;99.90;;;;;;5133631;28;19924;-82
2022/09/08 20:08:50;;;;;;;;;;;24.30;99.90;;;;;;5134481;28;20128;-82
2022/09/08 20:11:24;;;;;;;;;;;24.30;99.90;;;;;;5133874;28;19990;-82
2022/09/08 20:13:52;;;;;;;;;;;24.30;99.90;;;;;;5119722;28;20022;-82
2022/09/08 20:16:32;;;;;;;;;;;24.30;99.90;;;;;;5119895;28;19930;-82
2022/09/08 20:19:03;;;;;;;;;;;24.30;99.90;;;;;;5119939;28;19924;-82
2022/09/08 20:21:47;;;;;;;;;;;24.30;99.90;;;;;;5119581;28;19980;-82
2022/09/08 20:24:35;;;;;;;;;;;24.30;99.90;;;;;;5119411;28;19927;-81
2022/09/08 20:27:04;;;;;;;;;;;24.30;99.90;;;;;;5119319;28;19924;-82
2022/09/08 20:29:36;;;;;;;;;;;24.30;99.90;;;;;;5119449;28;19923;-81
2022/09/08 20:32:21;;;;;;;;;;;24.30;99.90;;;;;;5118982;28;19980;-81
2022/09/08 20:34:58;;;;;;;;;;;24.30;99.90;;;;;;5119677;28;20383;-80
2022/09/08 20:37:31;;;;;;;;;;;24.30;99.90;;;;;;5119592;28;19924;-81
2022/09/08 20:40:08;;;;;;;;;;;24.30;99.90;;;;;;5119367;28;19923;-81
2022/09/08 20:42:39;;;;;;;;;;;24.30;99.90;;;;;;5119616;28;19927;-81
2022/09/08 20:45:13;;;;;;;;;;;24.30;99.90;;;;;;5120377;28;19971;-81
2022/09/08 20:47:45;;;;;;;;;;;24.30;99.90;;;;;;5119744;28;20375;-82
2022/09/08 20:50:17;;;;;;;;;;;24.30;99.90;;;;;;5119597;28;19930;-81
2022/09/08 20:52:47;;;;;;;;;;;24.30;99.90;;;;;;5119754;28;19935;-82
2022/09/08 20:55:17;;;;;;;;;;;24.30;99.90;;;;;;5119124;28;19924;-81
2022/09/08 20:57:49;;;;;;;;;;;24.40;99.90;;;;;;5119637;28;20283;-82
2022/09/08 21:00:21;;;;;;;;;;;24.30;99.90;;;;;;5119095;28;19963;-82
2022/09/08 21:02:49;;;;;;;;;;;24.40;99.90;;;;;;5119501;28;19982;-81
2022/09/08 21:05:16;;;;;;;;;;;24.40;99.90;;;;;;5119138;28;19931;-81
2022/09/08 21:07:44;;;;;;;;;;;24.40;99.90;;;;;;5119376;28;19923;-82
2022/09/08 21:10:20;;;;;;;;;;;24.40;99.90;;;;;;5090430;22;20301;-77
2022/09/08 21:12:48;;;;;;;;;;;24.30;99.90;;;;;;5035929;28;20003;-77
2022/09/08 21:15:21;;;;;;;;;;;24.40;99.90;;;;;;5035773;28;19932;-76
2022/09/08 21:17:48;;;;;;;;;;;24.40;99.90;;;;;;5035767;28;19925;-76
2022/09/08 21:20:21;;;;;;;;;;;24.40;99.90;;;;;;5035513;28;19925;-77
2022/09/08 21:22:50;;;;;;;;;;;24.40;99.90;;;;;;5035577;28;19987;-76
2022/09/08 21:25:26;;;;;;;;;;;24.40;99.90;;;;;;5034575;28;19934;-76
2022/09/08 21:28:02;;;;;;;;;;;24.40;99.90;;;;;;5035254;28;20410;-76
2022/09/08 21:30:32;;;;;;;;;;;24.40;99.90;;;;;;5035458;28;19968;-77
2022/09/08 21:33:00;;;;;;;;;;;24.40;99.90;;;;;;5035403;28;19964;-77
2022/09/08 21:35:32;;;;;;;;;;;24.40;99.90;;;;;;5035398;28;19931;-77
2022/09/08 21:38:02;;;;;;;;;;;24.40;99.90;;;;;;5035081;28;19925;-77
